Spurfield, Canada
Current Conditions -  °F | °C
As of 10:00 AM on Saturday 25 Oct 2014 (Local Time) from CYZH Reporting Station
Overcast Overcast  
Wind Chill: 22°   Ceiling: 21000
Heat Index: 28°   Visibility: 9mi
Dew Point: 27°   Wind: 6mph
Humidity: 93%   Direction: 110°ESE
Pressure: 29.96"   Gusts: NA
Location:  55.23°N, 114.25°W
Report Text: CYZH 251600Z AUTO 11005KT 9SM OVC210 M02/M03 A2996 RMK SLP172
Loading
Personal Weather Stations






























Interactive Weather Map
Tropical Storm Tracking
New forecast layout! Learn more

10-Day Weather Forecast

Advertisements
Track Severe Weather on mobile